Time;durP1;ratioP1;P1;durP2;ratioP2;P2;SDS_P1;SDS_P2;PMS_P1;PMS_P2;Temp;Humidity;BMP_temperature;BMP_pressure;BME280_temperature;BME280_humidity;BME280_pressure;Samples;Min_cycle;Max_cycle;Signal;HPM_P1;HPM_P2
2023/06/17 00:00:20;;;;;;;5.90;3.70;;;;;;;15.55;56.17;101550.63;4972829;28;20044;-72
2023/06/17 00:02:45;;;;;;;8.23;3.78;;;;;;;15.49;56.97;101553.88;4988681;28;20026;-73
2023/06/17 00:05:11;;;;;;;8.57;3.60;;;;;;;15.46;56.81;101558.72;4975526;28;20038;-72
2023/06/17 00:07:36;;;;;;;4.05;3.47;;;;;;;15.41;56.89;101552.75;4991606;28;20146;-72
2023/06/17 00:10:02;;;;;;;6.35;3.65;;;;;;;15.35;57.24;101553.25;4989427;28;20501;-73
2023/06/17 00:12:31;;;;;;;5.18;3.55;;;;;;;15.29;57.42;101552.75;4988438;28;20073;-72
2023/06/17 00:15:00;;;;;;;6.38;3.30;;;;;;;15.22;56.61;101543.28;4970301;28;20466;-72
2023/06/17 00:17:26;;;;;;;5.70;3.58;;;;;;;15.19;57.17;101542.66;4985318;28;20049;-72
2023/06/17 00:19:56;;;;;;;4.85;3.67;;;;;;;15.12;58.11;101533.19;4961371;28;20491;-72
2023/06/17 00:22:25;;;;;;;4.75;3.33;;;;;;;15.05;58.16;101532.78;4970993;28;20049;-71
2023/06/17 00:24:53;;;;;;;4.72;3.60;;;;;;;15.01;58.12;101534.94;4984912;28;20030;-72
2023/06/17 00:27:18;;;;;;;4.35;3.60;;;;;;;14.98;58.13;101535.16;4987436;28;20057;-72
2023/06/17 00:29:44;;;;;;;5.38;4.05;;;;;;;14.92;57.99;101530.19;4983772;28;20035;-71
2023/06/17 00:32:09;;;;;;;5.85;3.95;;;;;;;14.88;58.79;101528.69;4983392;28;20048;-72
2023/06/17 00:34:34;;;;;;;9.27;3.88;;;;;;;14.84;58.99;101534.53;5004423;28;20034;-72
2023/06/17 00:37:00;;;;;;;5.70;3.83;;;;;;;14.77;59.43;101532.25;5004121;28;20049;-72
2023/06/17 00:39:25;;;;;;;12.20;4.10;;;;;;;14.75;59.47;101533.38;4984011;28;20039;-72
2023/06/17 00:41:51;;;;;;;6.75;4.65;;;;;;;14.71;59.86;101535.50;4969604;28;20023;-72
2023/06/17 00:44:16;;;;;;;6.88;4.35;;;;;;;14.64;60.84;101533.34;4983908;28;20402;-72
2023/06/17 00:46:46;;;;;;;6.15;4.85;;;;;;;14.59;59.84;101525.47;4970326;28;20089;-72
2023/06/17 00:49:12;;;;;;;5.65;4.18;;;;;;;14.55;61.76;101537.69;4987412;28;20227;-71
2023/06/17 00:51:38;;;;;;;5.78;4.28;;;;;;;14.47;61.19;101534.66;4989723;28;20088;-72
2023/06/17 00:54:07;;;;;;;6.53;5.00;;;;;;;14.45;61.11;101533.88;5003265;28;20508;-72
2023/06/17 00:56:34;;;;;;;8.43;4.80;;;;;;;14.43;60.74;101530.41;4988267;28;20030;-72
2023/06/17 00:59:01;;;;;;;9.90;4.95;;;;;;;14.37;61.25;101531.75;4988323;28;20038;-72
2023/06/17 01:01:29;;;;;;;8.40;4.88;;;;;;;14.31;62.02;101534.94;4986776;28;20030;-72
2023/06/17 01:03:55;;;;;;;10.98;4.93;;;;;;;14.22;62.66;101530.19;4983417;28;20084;-72
2023/06/17 01:06:43;;;;;;;6.57;5.10;;;;;;;14.21;61.35;101533.91;4984146;28;20404;-72
2023/06/17 01:09:15;;;;;;;9.50;5.40;;;;;;;14.13;62.19;101529.03;4983865;28;20045;-72
2023/06/17 01:11:41;;;;;;;8.97;6.27;;;;;;;14.07;62.52;101531.34;4968808;28;20089;-72
2023/06/17 01:14:10;;;;;;;7.72;5.90;;;;;;;14.01;63.13;101528.09;4984451;28;20298;-72
2023/06/17 01:16:42;;;;;;;8.27;5.43;;;;;;;13.97;62.47;101520.25;4984795;28;20027;-72
2023/06/17 01:19:20;;;;;;;8.40;5.57;;;;;;;13.96;62.04;101527.59;4984121;28;20070;-72
2023/06/17 01:21:51;;;;;;;7.82;5.57;;;;;;;13.93;63.15;101516.00;4983532;28;20046;-72
2023/06/17 01:24:26;;;;;;;6.97;5.15;;;;;;;13.89;62.59;101523.53;4979029;28;20443;-72
2023/06/17 01:26:56;;;;;;;9.23;5.88;;;;;;;13.86;62.98;101517.47;4986029;28;20116;-72
2023/06/17 01:29:22;;;;;;;10.15;5.28;;;;;;;13.81;63.20;101516.94;4986433;28;20066;-72
2023/06/17 01:31:52;;;;;;;7.88;5.53;;;;;;;13.77;63.81;101519.03;4978976;28;20049;-72
2023/06/17 01:34:19;;;;;;;6.03;4.70;;;;;;;13.69;64.18;101522.31;4975437;28;20038;-71
2023/06/17 01:36:48;;;;;;;7.00;4.45;;;;;;;13.63;65.04;101510.97;4986710;28;20105;-72
2023/06/17 01:39:18;;;;;;;8.43;5.57;;;;;;;13.50;65.47;101508.28;4987397;28;20054;-72
2023/06/17 01:41:46;;;;;;;9.98;6.30;;;;;;;13.49;65.29;101515.59;4987370;28;20046;-72
2023/06/17 01:44:13;;;;;;;7.13;5.43;;;;;;;13.52;64.88;101514.50;5002446;28;20037;-72
2023/06/17 01:46:40;;;;;;;8.05;5.90;;;;;;;13.54;64.23;101518.00;5002843;28;20373;-72
2023/06/17 01:49:06;;;;;;;8.27;5.85;;;;;;;13.56;64.68;101510.53;4986780;28;20057;-72
2023/06/17 01:51:32;;;;;;;11.20;5.68;;;;;;;13.56;64.24;101518.75;4985962;28;20497;-72
2023/06/17 01:54:00;;;;;;;9.18;5.65;;;;;;;13.52;64.09;101519.97;4985507;28;20567;-72
2023/06/17 01:56:25;;;;;;;8.27;4.80;;;;;;;13.47;65.01;101520.28;4984843;28;20142;-71
2023/06/17 01:58:50;;;;;;;7.75;5.95;;;;;;;13.43;65.05;101523.38;4982551;28;20128;-71
2023/06/17 02:01:16;;;;;;;7.32;5.53;;;;;;;13.40;64.99;101523.63;5002742;28;20069;-72
2023/06/17 02:03:42;;;;;;;8.05;5.78;;;;;;;13.36;64.91;101519.34;4985865;28;20383;-72
2023/06/17 02:06:08;;;;;;;7.97;5.28;;;;;;;13.32;65.17;101515.09;4986832;28;20465;-72
2023/06/17 02:08:34;;;;;;;9.10;6.25;;;;;;;13.28;65.69;101514.44;5002110;28;20019;-71
2023/06/17 02:11:02;;;;;;;7.53;5.28;;;;;;;13.24;65.64;101516.56;4985342;28;20073;-72
2023/06/17 02:13:27;;;;;;;7.82;5.70;;;;;;;13.16;66.05;101509.84;4985865;28;20061;-72
2023/06/17 02:15:52;;;;;;;9.57;5.72;;;;;;;13.14;66.21;101506.34;5001950;28;20042;-72
2023/06/17 02:18:18;;;;;;;6.85;5.20;;;;;;;13.10;66.72;101499.34;4986067;28;20394;-71
2023/06/17 02:20:45;;;;;;;9.00;5.60;;;;;;;13.04;66.71;101511.59;4986561;28;20034;-71
2023/06/17 02:23:10;;;;;;;7.97;5.60;;;;;;;12.99;66.58;101503.75;4986438;28;20037;-71
2023/06/17 02:25:39;;;;;;;6.00;4.88;;;;;;;12.99;66.17;101500.16;4968256;28;20043;-72
2023/06/17 02:28:05;;;;;;;10.35;5.65;;;;;;;12.98;66.79;101501.13;4982337;28;20085;-72
2023/06/17 02:30:31;;;;;;;8.82;5.03;;;;;;;12.92;66.90;101510.66;4982652;28;20514;-72
2023/06/17 02:32:56;;;;;;;7.30;5.43;;;;;;;12.90;66.53;101504.41;4982472;28;20084;-72
2023/06/17 02:35:22;;;;;;;6.97;5.05;;;;;;;12.85;66.38;101492.94;4998123;28;20746;-72
2023/06/17 02:37:47;;;;;;;8.15;5.38;;;;;;;12.83;67.35;101499.50;5002158;28;20042;-71
2023/06/17 02:40:14;;;;;;;8.00;5.47;;;;;;;12.72;67.96;101495.66;4981906;28;20050;-71
2023/06/17 02:42:39;;;;;;;11.73;6.28;;;;;;;12.70;67.83;101494.91;4967346;28;20490;-71
2023/06/17 02:45:07;;;;;;;9.73;6.10;;;;;;;12.67;68.01;101488.78;4986227;28;20038;-71
2023/06/17 02:47:32;;;;;;;9.10;6.05;;;;;;;12.65;68.21;101490.78;4987267;28;20479;-72
2023/06/17 02:49:58;;;;;;;14.70;5.68;;;;;;;12.60;69.01;101492.94;4989730;28;20089;-71
2023/06/17 02:52:24;;;;;;;7.75;5.82;;;;;;;12.54;68.40;101496.09;4982828;28;20082;-71
2023/06/17 02:54:50;;;;;;;9.15;5.57;;;;;;;12.51;69.01;101492.59;4983104;28;20065;-72
2023/06/17 02:57:19;;;;;;;7.72;5.60;;;;;;;12.50;68.50;101487.28;4981817;28;20499;-71
2023/06/17 02:59:44;;;;;;;6.88;5.63;;;;;;;12.49;68.65;101483.63;4981644;28;20057;-71
2023/06/17 03:02:10;;;;;;;7.90;6.43;;;;;;;12.49;68.91;101488.22;4967708;28;20447;-71
2023/06/17 03:04:35;;;;;;;8.23;5.85;;;;;;;12.49;68.57;101485.50;5002325;28;20050;-71
2023/06/17 03:07:04;;;;;;;8.30;6.18;;;;;;;12.48;68.38;101484.63;4985852;28;20038;-71
2023/06/17 03:09:30;;;;;;;10.02;6.00;;;;;;;12.44;68.67;101477.63;5001263;28;20067;-72
2023/06/17 03:11:57;;;;;;;7.15;5.60;;;;;;;12.40;68.74;101477.94;5001045;28;20457;-71
2023/06/17 03:14:24;;;;;;;8.73;6.10;;;;;;;12.37;69.30;101479.06;5001107;28;20566;-71
2023/06/17 03:16:50;;;;;;;9.88;5.90;;;;;;;12.35;68.80;101482.84;4991151;28;20023;-72
2023/06/17 03:19:19;;;;;;;10.10;6.15;;;;;;;12.35;69.05;101477.41;5001258;28;20042;-71
2023/06/17 03:21:47;;;;;;;9.65;5.82;;;;;;;12.34;68.89;101476.53;4985425;28;20023;-71
2023/06/17 03:24:12;;;;;;;9.75;6.72;;;;;;;12.33;69.21;101479.38;4981855;28;20065;-72
2023/06/17 03:26:38;;;;;;;9.15;5.57;;;;;;;12.31;69.22;101475.88;4965788;28;20444;-72
2023/06/17 03:29:04;;;;;;;6.75;5.28;;;;;;;12.24;68.88;101473.56;4981904;28;20025;-72
2023/06/17 03:31:30;;;;;;;11.50;7.00;;;;;;;12.25;69.42;101475.31;4984588;28;20056;-71
2023/06/17 03:33:55;;;;;;;11.25;5.97;;;;;;;12.24;69.96;101476.31;4993696;28;20033;-71
2023/06/17 03:36:30;;;;;;;12.18;6.57;;;;;;;12.24;69.33;101479.03;4989941;28;20100;-72
2023/06/17 03:38:56;;;;;;;8.57;6.15;;;;;;;12.24;69.55;101478.16;4988589;28;20521;-72
2023/06/17 03:41:23;;;;;;;8.88;6.65;;;;;;;12.26;69.53;101476.19;4988497;28;20378;-72
2023/06/17 03:43:49;;;;;;;9.00;6.13;;;;;;;12.28;69.06;101481.56;4988483;28;20027;-72
2023/06/17 03:46:14;;;;;;;8.75;6.43;;;;;;;12.28;69.17;101468.78;4988251;28;20062;-72
2023/06/17 03:48:40;;;;;;;8.35;6.05;;;;;;;12.30;68.62;101472.28;4986407;28;20026;-72
2023/06/17 03:51:06;;;;;;;9.02;6.45;;;;;;;12.33;69.58;101474.78;4986330;28;20466;-71
2023/06/17 03:53:32;;;;;;;10.90;6.50;;;;;;;12.33;69.28;101471.19;4988459;28;20046;-71
2023/06/17 03:55:58;;;;;;;9.98;6.53;;;;;;;12.34;69.17;101470.22;4988405;28;20041;-71
2023/06/17 03:58:24;;;;;;;9.30;6.35;;;;;;;12.35;68.80;101463.75;4984945;28;20027;-71
2023/06/17 04:00:51;;;;;;;10.43;6.68;;;;;;;12.31;69.81;101467.69;4969641;28;20026;-71
2023/06/17 04:03:23;;;;;;;11.27;7.55;;;;;;;12.32;70.62;101469.47;4985835;28;20248;-71
2023/06/17 04:05:49;;;;;;;10.95;6.80;;;;;;;12.30;71.17;101466.81;4989043;28;20088;-71
2023/06/17 04:08:14;;;;;;;13.75;7.22;;;;;;;12.34;70.58;101464.75;4985476;28;20074;-72
2023/06/17 04:10:40;;;;;;;11.95;6.60;;;;;;;12.36;70.82;101471.88;4984806;28;20138;-70
2023/06/17 04:13:05;;;;;;;10.25;6.88;;;;;;;12.37;70.69;101470.00;4985109;28;20375;-72
2023/06/17 04:15:30;;;;;;;7.47;6.18;;;;;;;12.37;70.65;101467.28;4985037;28;20407;-71
2023/06/17 04:17:56;;;;;;;11.23;6.63;;;;;;;12.40;71.06;101470.66;5004808;28;20038;-71
2023/06/17 04:20:25;;;;;;;11.57;7.25;;;;;;;12.42;70.92;101473.28;4993969;28;20076;-71
2023/06/17 04:22:51;;;;;;;10.60;6.75;;;;;;;12.42;70.93;101471.41;5007076;28;20052;-71
2023/06/17 04:25:20;;;;;;;15.15;7.13;;;;;;;12.43;71.84;101469.56;4997641;28;20034;-71
2023/06/17 04:27:48;;;;;;;7.85;6.32;;;;;;;12.44;72.00;101465.84;5005896;28;20034;-71
2023/06/17 04:30:15;;;;;;;9.48;7.15;;;;;;;12.49;70.80;101472.72;5007568;28;20058;-71
2023/06/17 04:32:42;;;;;;;9.00;6.45;;;;;;;12.53;71.43;101481.56;5011153;28;20091;-71
2023/06/17 04:35:10;;;;;;;9.88;6.32;;;;;;;12.59;71.24;101472.06;5006446;28;20053;-72
2023/06/17 04:37:43;;;;;;;10.20;6.70;;;;;;;12.61;71.81;101473.72;5003696;28;20150;-71
2023/06/17 04:40:11;;;;;;;10.85;6.38;;;;;;;12.68;71.38;101477.78;4997748;28;20125;-71
2023/06/17 04:42:40;;;;;;;9.85;6.88;;;;;;;12.70;71.26;101478.53;5000109;28;20041;-71
2023/06/17 04:45:08;;;;;;;10.80;7.00;;;;;;;12.73;71.48;101472.88;4995043;28;20033;-71
2023/06/17 04:47:33;;;;;;;10.52;6.85;;;;;;;12.77;70.85;101476.22;5007475;28;20029;-71
2023/06/17 04:50:00;;;;;;;12.00;7.18;;;;;;;12.81;71.78;101480.47;5003726;28;20108;-71
2023/06/17 04:52:30;;;;;;;11.27;7.18;;;;;;;12.85;71.57;101482.00;5004525;28;20821;-71
2023/06/17 04:54:56;;;;;;;10.50;7.30;;;;;;;12.92;71.40;101482.47;5003889;28;20146;-71
2023/06/17 04:57:22;;;;;;;13.35;8.60;;;;;;;12.95;71.85;101477.63;4986907;28;20121;-71
2023/06/17 04:59:50;;;;;;;11.75;8.00;;;;;;;13.00;71.52;101480.91;4987437;28;20085;-71
2023/06/17 05:02:15;;;;;;;12.27;9.32;;;;;;;13.05;71.66;101487.88;5015409;28;20026;-71
2023/06/17 05:04:41;;;;;;;12.13;9.38;;;;;;;13.10;71.54;101483.84;5002402;28;20087;-71
2023/06/17 05:07:06;;;;;;;13.70;9.05;;;;;;;13.19;71.16;101487.75;5006920;28;20030;-71
2023/06/17 05:09:34;;;;;;;11.75;9.32;;;;;;;13.26;73.38;101491.84;5006172;28;20107;-71
2023/06/17 05:11:59;;;;;;;12.10;7.95;;;;;;;13.33;71.33;101493.13;5021224;28;20041;-71
2023/06/17 05:14:24;;;;;;;12.07;8.80;;;;;;;13.44;71.04;101503.28;5005602;28;20479;-71
2023/06/17 05:16:50;;;;;;;14.98;8.38;;;;;;;13.51;71.25;101499.09;5006466;28;20057;-71
2023/06/17 05:19:15;;;;;;;10.63;8.07;;;;;;;13.58;72.33;101494.91;5002362;28;20081;-71
2023/06/17 05:21:41;;;;;;;12.55;8.52;;;;;;;13.68;72.11;101495.09;4989702;28;20038;-71
2023/06/17 05:24:06;;;;;;;15.05;8.63;;;;;;;13.71;71.19;101492.16;5001995;28;20041;-71
2023/06/17 05:26:31;;;;;;;18.27;10.35;;;;;;;13.86;71.36;101492.84;5004665;28;20401;-71
2023/06/17 05:28:57;;;;;;;15.27;10.07;;;;;;;13.95;70.79;101497.63;5005894;28;20030;-71
2023/06/17 05:31:22;;;;;;;13.35;9.75;;;;;;;14.04;69.45;101483.22;5002564;28;20034;-71
2023/06/17 05:33:48;;;;;;;14.00;10.60;;;;;;;14.14;69.91;101492.47;4987376;28;20045;-71
2023/06/17 05:36:14;;;;;;;19.80;12.43;;;;;;;14.21;72.28;101485.50;4986973;28;20054;-71
2023/06/17 05:38:39;;;;;;;16.90;11.18;;;;;;;14.33;69.28;101496.53;5003100;28;20476;-71
2023/06/17 05:41:05;;;;;;;19.98;11.88;;;;;;;14.47;69.89;101491.72;4988254;28;20042;-71
2023/06/17 05:43:31;;;;;;;23.38;12.40;;;;;;;14.56;70.00;101487.41;5002645;28;20046;-71
2023/06/17 05:45:57;;;;;;;17.55;12.25;;;;;;;14.64;68.92;101490.41;5003184;28;20057;-71
2023/06/17 05:48:23;;;;;;;16.75;12.15;;;;;;;14.70;69.28;101484.44;5005419;28;20080;-71
2023/06/17 05:50:48;;;;;;;15.77;12.68;;;;;;;14.78;70.44;101489.28;4989831;28;20104;-71
2023/06/17 05:53:15;;;;;;;20.63;12.88;;;;;;;14.83;69.08;101491.66;5008161;28;20102;-71
2023/06/17 05:55:40;;;;;;;18.08;12.60;;;;;;;14.88;69.25;101484.84;5001599;28;20093;-71
2023/06/17 05:58:07;;;;;;;18.05;12.57;;;;;;;14.98;69.64;101488.59;5002220;28;20121;-71
2023/06/17 06:00:34;;;;;;;17.17;12.65;;;;;;;15.07;69.90;101489.72;4991426;28;20085;-71
2023/06/17 06:02:59;;;;;;;17.70;13.18;;;;;;;15.15;71.37;101489.94;4988030;28;20038;-71
2023/06/17 06:05:25;;;;;;;18.10;13.85;;;;;;;15.23;71.90;101486.59;5002450;28;20195;-72
2023/06/17 06:07:50;;;;;;;21.77;12.95;;;;;;;15.33;72.26;101493.03;5002638;28;20038;-71
2023/06/17 06:10:16;;;;;;;22.73;14.00;;;;;;;15.37;70.73;101483.56;5002372;28;20435;-71
2023/06/17 06:12:44;;;;;;;20.63;12.32;;;;;;;15.46;69.48;101484.69;5002022;28;20034;-72
2023/06/17 06:15:10;;;;;;;20.42;13.05;;;;;;;15.52;72.10;101482.28;4985921;28;20452;-71
2023/06/17 06:17:35;;;;;;;24.92;14.40;;;;;;;15.61;73.97;101482.53;4988941;28;20137;-71
2023/06/17 06:20:00;;;;;;;19.20;12.38;;;;;;;15.69;70.29;101485.56;4991376;28;20046;-71
2023/06/17 06:22:26;;;;;;;20.42;13.73;;;;;;;15.76;72.21;101484.00;5002422;28;20034;-71
2023/06/17 06:24:51;;;;;;;18.60;14.10;;;;;;;15.85;72.60;101487.88;4998241;28;20406;-71
2023/06/17 06:27:17;;;;;;;23.98;15.68;;;;;;;15.94;74.50;101481.59;5006209;28;20409;-71
2023/06/17 06:29:42;;;;;;;22.50;14.60;;;;;;;16.07;73.24;101485.03;5021245;28;20026;-71
2023/06/17 06:32:08;;;;;;;19.10;13.70;;;;;;;16.20;72.73;101487.63;4992019;28;20121;-71
2023/06/17 06:34:34;;;;;;;23.13;15.85;;;;;;;16.27;73.16;101484.22;4997058;28;20057;-71
2023/06/17 06:37:00;;;;;;;18.35;13.60;;;;;;;16.41;71.28;101485.75;5002939;28;20093;-71
2023/06/17 06:39:26;;;;;;;24.90;14.57;;;;;;;16.54;71.34;101491.03;5002897;28;20038;-71
2023/06/17 06:41:52;;;;;;;18.27;12.57;;;;;;;16.65;70.65;101480.00;4985168;28;20046;-71
2023/06/17 06:44:35;;;;;;;22.83;14.40;;;;;;;16.73;72.19;101482.97;4985839;28;20023;-71
2023/06/17 06:47:00;;;;;;;20.75;13.80;;;;;;;16.82;70.38;101486.78;5002633;28;20036;-71
2023/06/17 06:49:26;;;;;;;19.55;14.55;;;;;;;16.94;69.29;101490.31;4985356;28;20111;-71
2023/06/17 06:51:51;;;;;;;20.23;14.15;;;;;;;17.04;69.45;101494.00;5002088;28;20113;-71
2023/06/17 06:54:16;;;;;;;21.05;13.93;;;;;;;17.14;69.73;101496.78;5002206;28;20358;-71
2023/06/17 06:56:42;;;;;;;23.65;13.80;;;;;;;17.24;69.99;101497.69;4986295;28;20042;-71
2023/06/17 06:59:07;;;;;;;17.88;13.65;;;;;;;17.34;68.93;101499.47;4986841;28;20042;-71
2023/06/17 07:01:33;;;;;;;19.38;12.70;;;;;;;17.47;67.56;101498.34;4985507;28;20461;-71
2023/06/17 07:03:59;;;;;;;22.02;13.13;;;;;;;17.56;68.26;101492.00;5002395;28;20108;-71
2023/06/17 07:06:25;;;;;;;21.60;12.60;;;;;;;17.69;63.61;101489.00;5004136;28;20133;-71
2023/06/17 07:08:51;;;;;;;23.17;12.80;;;;;;;17.78;64.05;101488.19;4988884;28;20046;-71
2023/06/17 07:11:18;;;;;;;20.17;11.07;;;;;;;17.87;64.27;101486.47;5005211;28;20140;-71
2023/06/17 07:13:44;;;;;;;24.00;13.13;;;;;;;17.96;64.34;101488.38;5005140;28;20141;-71
2023/06/17 07:16:10;;;;;;;16.73;12.07;;;;;;;18.06;64.99;101492.00;5005690;28;20434;-71
2023/06/17 07:18:35;;;;;;;17.52;11.63;;;;;;;18.18;63.50;101487.19;5006296;28;20173;-71
2023/06/17 07:21:01;;;;;;;17.33;11.60;;;;;;;18.26;62.02;101488.22;4989222;28;20035;-71
2023/06/17 07:23:26;;;;;;;13.85;10.80;;;;;;;18.32;62.36;101481.25;4989755;28;20124;-71
2023/06/17 07:25:52;;;;;;;16.45;11.27;;;;;;;18.45;59.96;101484.56;5005080;28;20425;-71
2023/06/17 07:28:18;;;;;;;18.15;10.60;;;;;;;18.53;58.93;101483.84;5004974;28;20027;-70
2023/06/17 07:30:44;;;;;;;12.20;9.68;;;;;;;18.63;58.41;101486.59;5005525;28;20119;-71
2023/06/17 07:33:09;;;;;;;14.52;9.65;;;;;;;18.74;58.97;101490.06;5005420;28;20385;-71
2023/06/17 07:35:36;;;;;;;16.35;9.38;;;;;;;18.81;58.75;101484.84;4991891;28;20025;-71
2023/06/17 07:38:01;;;;;;;18.27;8.93;;;;;;;18.86;58.62;101486.13;4998108;28;20046;-72
2023/06/17 07:40:28;;;;;;;16.58;10.32;;;;;;;18.89;57.76;101481.34;5004543;28;20397;-72
2023/06/17 07:42:53;;;;;;;16.27;9.05;;;;;;;19.01;55.48;101491.16;5004831;28;20046;-71
2023/06/17 07:45:18;;;;;;;18.08;9.30;;;;;;;19.08;57.48;101481.28;5008119;28;20450;-71
2023/06/17 07:47:44;;;;;;;14.00;10.07;;;;;;;19.15;58.01;101487.06;5008679;28;20022;-71
2023/06/17 07:50:10;;;;;;;15.27;10.13;;;;;;;19.23;56.97;101476.13;5007765;28;20036;-70
2023/06/17 07:52:35;;;;;;;14.75;9.57;;;;;;;19.34;57.05;101481.44;5010466;28;20038;-71
2023/06/17 07:55:05;;;;;;;10.68;7.25;;;;;;;19.48;55.30;101480.94;4995036;28;20038;-71
2023/06/17 07:57:30;;;;;;;9.07;7.20;;;;;;;19.67;55.16;101470.84;4988968;28;20038;-72
2023/06/17 07:59:56;;;;;;;11.00;8.52;;;;;;;19.81;53.01;101470.31;5005123;28;20474;-72
2023/06/17 08:02:22;;;;;;;11.02;8.13;;;;;;;19.93;54.74;101474.59;4990175;28;20038;-72
2023/06/17 08:04:48;;;;;;;10.68;5.40;;;;;;;20.06;52.45;101479.72;5005324;28;20030;-71
2023/06/17 08:07:13;;;;;;;7.45;5.63;;;;;;;20.32;53.18;101477.03;4989142;28;20664;-72
2023/06/17 08:09:39;;;;;;;10.88;6.50;;;;;;;20.69;52.70;101471.31;4991294;28;20034;-71
2023/06/17 08:12:05;;;;;;;10.40;6.47;;;;;;;21.24;49.90;101470.94;4987832;28;20092;-72
2023/06/17 08:14:30;;;;;;;8.90;5.75;;;;;;;22.10;49.16;101472.63;4989816;28;20453;-72
2023/06/17 08:16:55;;;;;;;10.27;6.75;;;;;;;22.85;47.23;101465.03;4989303;28;20042;-72
2023/06/17 08:19:21;;;;;;;10.55;6.15;;;;;;;23.70;46.28;101472.78;4989680;28;20509;-71
2023/06/17 08:21:47;;;;;;;7.30;5.93;;;;;;;24.40;44.32;101463.47;4989962;28;20042;-73
2023/06/17 08:24:21;;;;;;;8.95;6.05;;;;;;;25.07;43.82;101465.41;4989949;28;20544;-72
2023/06/17 08:26:47;;;;;;;6.28;4.95;;;;;;;25.62;41.06;101464.94;4988904;28;20026;-72
2023/06/17 08:29:14;;;;;;;10.98;6.47;;;;;;;26.04;38.86;101468.88;4989074;28;20546;-71
2023/06/17 08:31:44;;;;;;;9.27;5.60;;;;;;;26.52;39.35;101463.59;5004913;28;20048;-71
2023/06/17 08:34:10;;;;;;;9.57;5.40;;;;;;;27.02;37.83;101453.25;4996282;28;20430;-71
2023/06/17 08:36:38;;;;;;;8.85;5.15;;;;;;;27.39;36.98;101457.59;4989993;28;20493;-72
2023/06/17 08:39:04;;;;;;;6.72;5.43;;;;;;;27.76;35.49;101455.41;4988995;28;20045;-72
2023/06/17 08:41:30;;;;;;;5.32;4.82;;;;;;;28.01;34.15;101461.28;4988966;28;20320;-71
2023/06/17 08:44:00;;;;;;;5.50;4.20;;;;;;;28.16;29.73;101449.91;5006731;28;20104;-71
2023/06/17 08:46:27;;;;;;;5.47;4.65;;;;;;;28.49;31.73;101452.78;5006883;28;20060;-72
2023/06/17 08:48:53;;;;;;;7.47;4.90;;;;;;;28.63;30.44;101460.16;4995303;28;20030;-71
2023/06/17 08:51:19;;;;;;;5.63;4.55;;;;;;;28.62;30.73;101454.72;5007421;28;20057;-72
2023/06/17 08:53:45;;;;;;;10.40;5.47;;;;;;;28.37;30.97;101452.56;5001711;28;20037;-72
2023/06/17 08:56:12;;;;;;;6.75;4.88;;;;;;;28.82;31.84;101461.22;4996151;28;20095;-71
2023/06/17 08:58:37;;;;;;;12.95;5.10;;;;;;;29.11;31.49;101448.69;5007624;28;20480;-71
2023/06/17 09:01:05;;;;;;;6.05;5.00;;;;;;;29.27;30.82;101454.91;5002365;28;20125;-71
2023/06/17 09:03:36;;;;;;;8.75;4.88;;;;;;;29.42;32.91;101447.94;5007451;28;20036;-71
2023/06/17 09:06:23;;;;;;;8.57;4.57;;;;;;;29.85;32.79;101447.38;5006243;28;20558;-72
2023/06/17 09:08:50;;;;;;;5.93;4.70;;;;;;;30.14;31.75;101454.34;5006425;28;20034;-71
2023/06/17 09:11:24;;;;;;;6.68;4.85;;;;;;;30.32;30.11;101453.56;5007516;28;20448;-71
2023/06/17 09:14:00;;;;;;;7.40;4.15;;;;;;;30.41;31.94;101449.41;4998606;28;20381;-71
2023/06/17 09:16:31;;;;;;;7.95;5.15;;;;;;;30.35;29.41;101449.44;4988713;28;20041;-71
2023/06/17 09:19:09;;;;;;;7.82;4.80;;;;;;;30.46;28.91;101446.78;4988570;28;20042;-71
2023/06/17 09:21:35;;;;;;;7.05;4.78;;;;;;;30.25;28.48;101449.94;4989015;28;20462;-71
2023/06/17 09:24:05;;;;;;;7.35;4.90;;;;;;;30.00;29.44;101447.06;4988605;28;20082;-71
2023/06/17 09:26:35;;;;;;;9.55;4.85;;;;;;;29.82;30.19;101449.75;5009466;28;20042;-71
2023/06/17 09:29:04;;;;;;;6.65;4.18;;;;;;;30.10;29.91;101446.56;5003987;28;20180;-71
2023/06/17 09:31:30;;;;;;;6.00;4.75;;;;;;;30.14;28.94;101459.97;4998574;28;20048;-70
2023/06/17 09:33:57;;;;;;;7.85;4.95;;;;;;;30.07;27.50;101449.81;5002958;28;20045;-71
2023/06/17 09:36:23;;;;;;;6.03;4.65;;;;;;;29.79;27.93;101448.25;5003862;28;20050;-71
2023/06/17 09:38:50;;;;;;;7.53;4.60;;;;;;;29.23;25.58;101454.47;5002882;28;20045;-71
2023/06/17 09:41:18;;;;;;;6.68;4.85;;;;;;;29.67;27.95;101444.44;4997978;28;20124;-70
2023/06/17 09:43:50;;;;;;;6.72;4.75;;;;;;;30.03;28.75;101443.81;5006486;28;20033;-71
2023/06/17 09:46:24;;;;;;;5.95;4.57;;;;;;;30.39;28.64;101453.50;5001824;28;20381;-72
2023/06/17 09:48:51;;;;;;;4.50;3.80;;;;;;;30.85;27.79;101443.88;4990988;28;20474;-72
2023/06/17 09:51:20;;;;;;;5.55;4.70;;;;;;;30.91;27.26;101445.75;4996635;28;20537;-72
2023/06/17 09:53:47;;;;;;;9.32;4.38;;;;;;;30.96;25.18;101443.97;5004667;28;20038;-71
2023/06/17 09:56:14;;;;;;;6.90;4.20;;;;;;;31.09;27.66;101445.78;5006556;28;20085;-71
2023/06/17 09:58:41;;;;;;;6.97;4.82;;;;;;;31.61;27.23;101448.22;5005651;28;20370;-71
2023/06/17 10:01:08;;;;;;;5.90;4.40;;;;;;;31.85;24.80;101435.16;5007172;28;20497;-71
2023/06/17 10:03:33;;;;;;;7.07;4.60;;;;;;;31.82;25.17;101446.88;5006533;28;20077;-71
2023/06/17 10:06:10;;;;;;;6.72;4.55;;;;;;;32.02;26.60;101444.66;5002130;28;20590;-72
2023/06/17 10:08:43;;;;;;;5.90;4.40;;;;;;;32.13;27.14;101435.44;5004239;28;20072;-72
2023/06/17 10:11:12;;;;;;;7.22;4.40;;;;;;;32.33;23.91;101435.09;5000505;28;20045;-71
2023/06/17 10:13:40;;;;;;;5.80;4.30;;;;;;;32.07;26.10;101441.13;4997105;28;20036;-72
2023/06/17 10:16:10;;;;;;;6.25;4.35;;;;;;;32.00;25.47;101428.03;5006116;28;20054;-71
2023/06/17 10:18:38;;;;;;;9.13;4.43;;;;;;;32.16;25.95;101431.25;5007569;28;20478;-72
2023/06/17 10:21:09;;;;;;;7.20;4.97;;;;;;;32.24;26.48;101428.97;5003763;28;20061;-72
2023/06/17 10:23:36;;;;;;;5.63;4.40;;;;;;;32.64;24.20;101433.09;5005378;28;20115;-71
2023/06/17 10:26:06;;;;;;;8.02;4.63;;;;;;;32.96;26.58;101431.66;4996643;28;20042;-72
2023/06/17 10:28:53;;;;;;;9.23;4.60;;;;;;;33.19;25.85;101429.94;5013470;28;20026;-71
2023/06/17 10:31:23;;;;;;;5.32;4.10;;;;;;;33.41;25.40;101419.72;4998081;28;20238;-72
2023/06/17 10:33:49;;;;;;;5.43;4.40;;;;;;;33.71;23.43;101415.84;4997327;28;20046;-71
2023/06/17 10:36:15;;;;;;;7.13;4.75;;;;;;;33.21;21.91;101416.47;4998699;28;20568;-71
2023/06/17 10:38:40;;;;;;;7.82;4.72;;;;;;;33.09;22.98;101419.28;5004272;28;20137;-71
2023/06/17 10:41:06;;;;;;;6.72;3.80;;;;;;;33.24;25.69;101413.13;5008875;28;20037;-72
2023/06/17 10:43:37;;;;;;;7.30;4.78;;;;;;;32.96;23.99;101422.34;4996456;28;20562;-72
2023/06/17 10:46:02;;;;;;;;;;;;;;;33.06;25.11;101425.41;5005983;28;20446;-71
2023/06/17 10:48:30;;;;;;;7.20;4.70;;;;;;;32.38;24.71;101414.69;5010247;28;19923;-71
2023/06/17 10:50:58;;;;;;;7.88;4.85;;;;;;;32.41;24.43;101409.44;5003682;28;20115;-71
2023/06/17 10:53:31;;;;;;;9.70;5.05;;;;;;;32.46;22.58;101412.38;4997828;28;20038;-71
2023/06/17 10:55:58;;;;;;;8.48;5.47;;;;;;;32.72;23.73;101407.38;5019319;28;20137;-72
2023/06/17 10:58:51;;;;;;;6.88;4.35;;;;;;;33.08;26.67;101403.47;5004891;28;20325;-72
2023/06/17 11:01:16;;;;;;;11.68;4.47;;;;;;;33.46;26.15;101408.56;5006996;28;20486;-72
2023/06/17 11:03:42;;;;;;;12.65;4.47;;;;;;;33.86;25.71;101399.22;4992763;28;20053;-72
2023/06/17 11:06:10;;;;;;;6.78;4.47;;;;;;;33.90;24.55;101397.63;4988640;28;20042;-71
2023/06/17 11:08:37;;;;;;;5.25;4.75;;;;;;;33.83;24.41;101398.88;4988536;28;20096;-71
2023/06/17 11:11:16;;;;;;;9.30;5.88;;;;;;;32.55;23.49;101400.72;4986212;28;20125;-71
2023/06/17 11:13:43;;;;;;;6.68;4.60;;;;;;;31.97;24.15;101391.91;4987018;28;20035;-71
2023/06/17 11:16:10;;;;;;;8.85;4.70;;;;;;;31.65;25.03;101390.41;4987790;28;20421;-71
2023/06/17 11:18:37;;;;;;;7.45;5.38;;;;;;;31.34;23.49;101389.53;4987688;28;20104;-71